Time;durP1;ratioP1;P1;durP2;ratioP2;P2;SDS_P1;SDS_P2;PMS_P1;PMS_P2;Temp;Humidity;BMP_temperature;BMP_pressure;BME280_temperature;BME280_humidity;BME280_pressure;Samples;Min_cycle;Max_cycle;Signal;HPM_P1;HPM_P2
2021/03/05 00:01:32;;;;;;;;;;;;;;;6.44;71.94;97812.91;1702372;84;20224;-76
2021/03/05 00:04:03;;;;;;;;;;;;;;;6.45;72.08;97814.64;1702619;84;20153;-76
2021/03/05 00:06:30;;;;;;;;;;;;;;;6.44;72.14;97810.73;1702311;84;20924;-77
2021/03/05 00:08:57;;;;;;;;;;;;;;;6.44;72.47;97811.58;1702266;84;20153;-77
2021/03/05 00:11:27;;;;;;;;;;;;;;;6.43;72.73;97812.55;1701842;84;21381;-77
2021/03/05 00:13:54;;;;;;;;;;;;;;;6.43;72.85;97817.02;1702110;84;20202;-77
2021/03/05 00:16:22;;;;;;;;;;;;;;;6.40;72.96;97814.08;1702794;83;20489;-77
2021/03/05 00:18:51;;;;;;;;;;;;;;;6.40;73.52;97818.53;1702333;84;20157;-77
2021/03/05 00:21:18;;;;;;;;;;;;;;;6.35;73.87;97820.15;1702248;84;20117;-76
2021/03/05 00:23:45;;;;;;;;;;;;;;;6.32;74.76;97823.00;1702477;84;21888;-76
2021/03/05 00:26:14;;;;;;;;;;;;;;;6.29;75.41;97824.52;1701844;83;20180;-76
2021/03/05 00:28:41;;;;;;;;;;;;;;;6.26;75.46;97826.04;1702393;84;20133;-77
2021/03/05 00:31:08;;;;;;;;;;;;;;;6.22;75.87;97820.05;1702723;83;20349;-77
2021/03/05 00:33:40;;;;;;;;;;;;;;;6.18;76.12;97816.32;1702656;84;20216;-77
2021/03/05 00:36:10;;;;;;;;;;;;;;;6.13;76.80;97816.15;1702759;84;21453;-77
2021/03/05 00:38:38;;;;;;;;;;;;;;;6.08;77.37;97816.88;1702659;84;20383;-76
2021/03/05 00:41:06;;;;;;;;;;;;;;;6.05;77.46;97810.88;1702777;84;20141;-77
2021/03/05 00:43:36;;;;;;;;;;;;;;;6.02;77.78;97808.40;1702451;84;20157;-77
2021/03/05 00:46:04;;;;;;;;;;;;;;;5.98;78.13;97813.06;1702364;84;20141;-77
2021/03/05 00:48:33;;;;;;;;;;;;;;;5.95;78.58;97813.22;1702383;84;21160;-77
2021/03/05 00:51:02;;;;;;;;;;;;;;;5.92;78.67;97812.06;1702690;84;20117;-77
2021/03/05 00:53:30;;;;;;;;;;;;;;;5.89;79.04;97805.59;1702866;84;20137;-77
2021/03/05 00:55:58;;;;;;;;;;;;;;;5.86;79.10;97817.77;1702880;84;20318;-77
2021/03/05 00:58:25;;;;;;;;;;;;;;;5.85;79.26;97812.91;1703086;83;20134;-77
2021/03/05 01:00:54;;;;;;;;;;;;;;;5.82;79.26;97814.88;1702776;84;21206;-77
2021/03/05 01:03:23;;;;;;;;;;;;;;;5.79;79.46;97810.12;1702884;84;20390;-78
2021/03/05 01:05:52;;;;;;;;;;;;;;;5.77;79.72;97806.70;1701233;84;20153;-78
2021/03/05 01:08:19;;;;;;;;;;;;;;;5.76;79.85;97803.64;1703621;83;20314;-78
2021/03/05 01:10:49;;;;;;;;;;;;;;;5.74;80.08;97799.38;1703032;83;20205;-78
2021/03/05 01:13:16;;;;;;;;;;;;;;;5.72;80.11;97803.47;1702847;84;21167;-78
2021/03/05 01:15:43;;;;;;;;;;;;;;;5.72;80.35;97796.80;1702882;84;20678;-77
2021/03/05 01:18:14;;;;;;;;;;;;;;;5.70;80.50;97794.68;1702923;84;20157;-77
2021/03/05 01:20:42;;;;;;;;;;;;;;;5.70;80.56;97788.02;1702762;84;20344;-77
2021/03/05 01:23:09;;;;;;;;;;;;;;;5.70;80.76;97780.02;1702916;84;20160;-77
2021/03/05 01:25:37;;;;;;;;;;;;;;;5.68;80.73;97781.94;1702664;84;21211;-77
2021/03/05 01:28:04;;;;;;;;;;;;;;;5.68;80.78;97784.59;1707280;84;20116;-77
2021/03/05 01:30:31;;;;;;;;;;;;;;;5.68;80.80;97781.94;1672928;85;20139;-78
2021/03/05 01:33:00;;;;;;;;;;;;;;;5.68;80.81;97779.27;1681771;85;20139;-77
2021/03/05 01:35:28;;;;;;;;;;;;;;;5.68;80.92;97789.92;1682092;85;20226;-77
2021/03/05 01:37:56;;;;;;;;;;;;;;;5.67;81.17;97788.20;1682207;85;22275;-77
2021/03/05 01:40:34;;;;;;;;;;;;;;;5.67;81.40;97790.02;1657338;86;20258;-78
2021/03/05 01:43:03;;;;;;;;;;;;;;;5.67;81.44;97800.19;1658914;86;20157;-78
2021/03/05 01:45:33;;;;;;;;;;;;;;;5.64;81.39;97791.05;1658934;86;20734;-78
2021/03/05 01:48:05;;;;;;;;;;;;;;;5.63;81.29;97781.36;1658634;86;20170;-77
2021/03/05 01:50:36;;;;;;;;;;;;;;;5.63;81.24;97789.35;1672630;85;21173;-77
2021/03/05 01:53:05;;;;;;;;;;;;;;;5.63;81.20;97784.02;1672533;86;21096;-77
2021/03/05 01:55:34;;;;;;;;;;;;;;;5.62;81.46;97790.28;1672778;86;20147;-77
2021/03/05 01:58:02;;;;;;;;;;;;;;;5.63;81.61;97792.02;1673036;86;20152;-79
2021/03/05 02:00:36;;;;;;;;;;;;;;;5.61;81.82;97792.55;1672873;86;20194;-79
2021/03/05 02:03:05;;;;;;;;;;;;;;;5.61;81.88;97791.22;1672954;86;22224;-78
2021/03/05 02:05:36;;;;;;;;;;;;;;;5.60;82.12;97803.70;1673054;86;20533;-79
2021/03/05 02:08:03;;;;;;;;;;;;;;;5.59;81.94;97793.98;1673169;86;20119;-79
2021/03/05 02:10:30;;;;;;;;;;;;;;;5.54;80.41;97796.55;1672865;86;20475;-79
2021/03/05 02:12:58;;;;;;;;;;;;;;;5.47;78.72;97785.85;1673208;86;20151;-79
2021/03/05 02:15:28;;;;;;;;;;;;;;;5.40;77.98;97786.69;1672846;85;21251;-79
2021/03/05 02:18:27;;;;;;;;;;;;;;;5.34;78.23;97797.21;1672404;85;20489;-78
2021/03/05 02:21:19;;;;;;;;;;;;;;;5.26;78.51;97803.46;1623918;88;20193;-79
2021/03/05 02:23:49;;;;;;;;;;;;;;;5.17;78.79;97805.31;1661509;84;20142;-77
2021/03/05 02:26:28;;;;;;;;;;;;;;;5.10;78.80;97804.81;1629795;88;20164;-78
2021/03/05 02:29:25;;;;;;;;;;;;;;;5.06;78.67;97813.45;1630433;88;21826;-78
2021/03/05 02:31:55;;;;;;;;;;;;;;;5.00;78.34;97815.13;1630283;87;20152;-77
2021/03/05 02:34:26;;;;;;;;;;;;;;;4.93;78.29;97818.21;1630409;87;20121;-78
2021/03/05 02:37:01;;;;;;;;;;;;;;;4.88;78.30;97823.79;1630366;87;20342;-78
2021/03/05 02:40:01;;;;;;;;;;;;;;;4.86;78.30;97833.67;1630160;87;20170;-78
2021/03/05 02:42:51;;;;;;;;;;;;;;;4.79;78.29;97841.11;1659150;85;22388;-79
2021/03/05 02:45:21;;;;;;;;;;;;;;;4.76;78.55;97843.08;1627198;87;20272;-78
2021/03/05 02:47:55;;;;;;;;;;;;;;;4.70;78.62;97846.95;1626948;88;20154;-79
2021/03/05 02:50:27;;;;;;;;;;;;;;;4.65;78.91;97849.86;1626514;88;20200;-79
2021/03/05 02:52:59;;;;;;;;;;;;;;;4.61;79.12;97856.28;1611269;88;20188;-79
2021/03/05 02:55:28;;;;;;;;;;;;;;;4.57;79.40;97859.19;1659628;85;22158;-79
2021/03/05 02:57:56;;;;;;;;;;;;;;;4.54;79.41;97862.89;1659223;85;20164;-79
2021/03/05 03:00:24;;;;;;;;;;;;;;;4.45;79.24;97860.72;1659490;85;20143;-78
2021/03/05 03:02:53;;;;;;;;;;;;;;;4.40;79.18;97856.09;1656743;86;20804;-79
2021/03/05 03:05:24;;;;;;;;;;;;;;;4.31;79.29;97869.41;1629110;87;20143;-79
2021/03/05 03:07:52;;;;;;;;;;;;;;;4.26;79.18;97872.31;1648239;86;21226;-78
2021/03/05 03:10:23;;;;;;;;;;;;;;;4.21;79.47;97882.33;1658913;85;20679;-79
2021/03/05 03:12:52;;;;;;;;;;;;;;;4.13;79.73;97880.52;1659142;85;20537;-79
2021/03/05 03:15:22;;;;;;;;;;;;;;;4.07;79.72;97876.88;1630029;88;20248;-78
2021/03/05 03:17:51;;;;;;;;;;;;;;;4.01;79.72;97890.47;1660121;85;20412;-79
2021/03/05 03:20:19;;;;;;;;;;;;;;;3.91;79.84;97888.28;1695308;83;21846;-79
2021/03/05 03:22:46;;;;;;;;;;;;;;;3.86;80.12;97890.77;1713653;83;20203;-78
2021/03/05 03:25:18;;;;;;;;;;;;;;;3.80;80.40;97889.30;1702754;84;20116;-78
2021/03/05 03:27:45;;;;;;;;;;;;;;;3.76;80.65;97897.02;1711379;83;20137;-78
2021/03/05 03:30:15;;;;;;;;;;;;;;;3.71;80.95;97901.70;1709672;83;20116;-77
2021/03/05 03:32:46;;;;;;;;;;;;;;;3.65;81.22;97897.54;1713676;83;21664;-78
2021/03/05 03:35:14;;;;;;;;;;;;;;;3.60;81.36;97892.93;1712219;83;20141;-78
2021/03/05 03:37:41;;;;;;;;;;;;;;;3.57;81.48;97883.31;1713425;83;20136;-77
2021/03/05 03:40:12;;;;;;;;;;;;;;;3.52;81.49;97877.38;1713459;83;20152;-78
2021/03/05 03:42:40;;;;;;;;;;;;;;;3.49;81.60;97875.34;1713966;83;20141;-78
2021/03/05 03:45:08;;;;;;;;;;;;;;;3.51;81.80;97878.77;1713701;83;21807;-77
2021/03/05 03:47:37;;;;;;;;;;;;;;;3.50;81.91;97885.01;1713766;83;20160;-77
2021/03/05 03:50:08;;;;;;;;;;;;;;;3.49;82.10;97876.67;1713254;83;20136;-77
2021/03/05 03:52:49;;;;;;;;;;;;;;;3.48;82.16;97877.11;1713792;83;20192;-78
2021/03/05 03:55:23;;;;;;;;;;;;;;;3.48;82.20;97879.77;1713714;83;20156;-78
2021/03/05 03:57:53;;;;;;;;;;;;;;;3.48;82.18;97877.11;1713690;83;21376;-78
2021/03/05 04:00:22;;;;;;;;;;;;;;;3.45;82.01;97874.61;1713509;83;20230;-79
2021/03/05 04:02:53;;;;;;;;;;;;;;;3.43;81.99;97873.36;1713495;83;20144;-79
2021/03/05 04:05:28;;;;;;;;;;;;;;;3.41;82.19;97878.37;1713260;83;37918;-78
2021/03/05 04:07:57;;;;;;;;;;;;;;;3.38;82.35;97886.48;1709652;83;20164;-79
2021/03/05 04:10:27;;;;;;;;;;;;;;;3.35;82.40;97890.61;1708600;84;21220;-80
2021/03/05 04:12:54;;;;;;;;;;;;;;;3.32;82.43;97886.77;1709046;83;20769;-80
2021/03/05 04:15:22;;;;;;;;;;;;;;;3.29;82.28;97892.23;1672586;83;20503;-80
2021/03/05 04:17:49;;;;;;;;;;;;;;;3.26;82.12;97894.55;1689440;83;20559;-80
2021/03/05 04:20:19;;;;;;;;;;;;;;;3.19;81.66;97890.02;1706503;82;20212;-80
2021/03/05 04:22:49;;;;;;;;;;;;;;;3.13;80.72;97894.28;1704140;84;21185;-80
2021/03/05 04:25:17;;;;;;;;;;;;;;;3.02;79.90;97903.22;1703970;84;20137;-80
2021/03/05 04:27:48;;;;;;;;;;;;;;;2.91;79.83;97901.53;1703945;84;20380;-79
2021/03/05 04:30:17;;;;;;;;;;;;;;;2.78;79.68;97913.18;1703877;84;20183;-80
2021/03/05 04:32:44;;;;;;;;;;;;;;;2.66;79.56;97913.25;1704174;84;20426;-80
2021/03/05 04:35:12;;;;;;;;;;;;;;;2.55;79.51;97920.84;1703765;84;21095;-80
2021/03/05 04:37:40;;;;;;;;;;;;;;;2.45;79.81;97919.91;1705997;84;20278;-79
2021/03/05 04:40:09;;;;;;;;;;;;;;;2.39;80.26;97931.26;1706697;84;20195;-80
2021/03/05 04:42:37;;;;;;;;;;;;;;;2.31;80.15;97927.14;1705174;84;20208;-79
2021/03/05 04:45:06;;;;;;;;;;;;;;;2.25;80.21;97923.91;1703604;84;20140;-80
2021/03/05 04:47:35;;;;;;;;;;;;;;;2.17;80.64;97925.08;1704132;84;21192;-80
2021/03/05 04:50:05;;;;;;;;;;;;;;;2.13;80.81;97927.48;1703897;84;20144;-80
2021/03/05 04:52:36;;;;;;;;;;;;;;;2.08;80.71;97918.00;1703883;84;20121;-80
2021/03/05 04:55:06;;;;;;;;;;;;;;;2.04;80.96;97917.28;1704117;84;20438;-80
2021/03/05 04:57:33;;;;;;;;;;;;;;;1.98;81.22;97920.19;1703655;84;20157;-80
2021/03/05 05:00:08;;;;;;;;;;;;;;;1.94;81.37;97919.46;1703274;84;20204;-80
2021/03/05 05:02:37;;;;;;;;;;;;;;;1.90;81.62;97918.33;1704139;84;20617;-80
2021/03/05 05:05:06;;;;;;;;;;;;;;;1.87;81.55;97915.34;1703663;84;20434;-79
2021/03/05 05:07:34;;;;;;;;;;;;;;;1.85;81.56;97912.37;1703715;84;20141;-81
2021/03/05 05:10:04;;;;;;;;;;;;;;;1.83;81.72;97918.17;1703922;84;20117;-80
2021/03/05 05:12:31;;;;;;;;;;;;;;;1.79;81.76;97926.24;1703991;84;21200;-80
2021/03/05 05:14:59;;;;;;;;;;;;;;;1.76;81.70;97928.17;1703939;84;20153;-81
2021/03/05 05:17:27;;;;;;;;;;;;;;;1.71;81.76;97941.59;1703977;84;20164;-82
2021/03/05 05:19:55;;;;;;;;;;;;;;;1.69;82.04;97942.56;1703638;84;21030;-80
2021/03/05 05:22:22;;;;;;;;;;;;;;;1.68;82.05;97948.80;1703810;84;20152;-81
2021/03/05 05:24:52;;;;;;;;;;;;;;;1.68;82.15;97953.63;1703668;84;21230;-82
2021/03/05 05:27:19;;;;;;;;;;;;;;;1.67;82.31;97951.92;1703581;84;20165;-81
2021/03/05 05:29:47;;;;;;;;;;;;;;;1.66;82.22;97956.81;1703922;83;20394;-81
2021/03/05 05:32:16;;;;;;;;;;;;;;;1.66;82.35;97958.61;1703949;84;20129;-80
2021/03/05 05:34:44;;;;;;;;;;;;;;;1.65;82.63;97960.38;1703812;84;20160;-79
2021/03/05 05:37:11;;;;;;;;;;;;;;;1.66;82.67;97966.08;1704209;84;20961;-80
2021/03/05 05:39:40;;;;;;;;;;;;;;;1.67;82.75;97965.16;1703973;84;20153;-80
2021/03/05 05:42:08;;;;;;;;;;;;;;;1.68;82.54;97964.22;1704328;84;20160;-80
2021/03/05 05:44:37;;;;;;;;;;;;;;;1.68;82.36;97969.52;1704042;84;20187;-81
2021/03/05 05:47:06;;;;;;;;;;;;;;;1.68;82.24;97968.19;1704161;84;20137;-80
2021/03/05 05:49:36;;;;;;;;;;;;;;;1.66;82.21;97967.88;1703773;84;20506;-79
2021/03/05 05:52:03;;;;;;;;;;;;;;;1.66;82.41;97972.70;1704002;84;20133;-79
2021/03/05 05:54:35;;;;;;;;;;;;;;;1.66;82.58;97969.20;1704005;84;20422;-80
2021/03/05 05:57:02;;;;;;;;;;;;;;;1.65;82.44;97970.95;1704238;84;20469;-79
2021/03/05 05:59:29;;;;;;;;;;;;;;;1.64;82.26;97977.20;1684305;84;20153;-81
2021/03/05 06:02:01;;;;;;;;;;;;;;;1.66;82.09;97974.02;1704044;84;21279;-80
2021/03/05 06:04:29;;;;;;;;;;;;;;;1.62;81.92;97983.88;1703765;84;20230;-81
2021/03/05 06:06:57;;;;;;;;;;;;;;;1.58;82.03;97990.67;1703481;84;20175;-80
2021/03/05 06:09:26;;;;;;;;;;;;;;;1.54;82.09;97982.45;1704006;84;20157;-80
2021/03/05 06:11:57;;;;;;;;;;;;;;;1.50;82.15;97990.09;1704021;84;20431;-81
2021/03/05 06:14:26;;;;;;;;;;;;;;;1.48;82.34;97990.63;1703780;84;21213;-79
2021/03/05 06:16:59;;;;;;;;;;;;;;;1.50;82.63;98000.68;1703400;84;20137;-80
2021/03/05 06:19:32;;;;;;;;;;;;;;;1.46;82.80;98000.42;1703448;84;20170;-80
2021/03/05 06:22:04;;;;;;;;;;;;;;;1.46;82.83;97997.30;1712980;83;20474;-79
2021/03/05 06:24:39;;;;;;;;;;;;;;;1.46;82.80;98001.73;1713611;83;20167;-79
2021/03/05 06:27:06;;;;;;;;;;;;;;;1.46;82.88;98004.39;1713374;83;21881;-79
2021/03/05 06:29:43;;;;;;;;;;;;;;;1.46;82.67;98014.97;1713522;83;20153;-80
2021/03/05 06:32:17;;;;;;;;;;;;;;;1.42;82.84;98020.38;1713696;83;20136;-81
2021/03/05 06:34:51;;;;;;;;;;;;;;;1.41;82.74;98018.65;1713601;83;20177;-80
2021/03/05 06:37:25;;;;;;;;;;;;;;;1.40;82.82;98030.17;1713685;83;20148;-79
2021/03/05 06:40:03;;;;;;;;;;;;;;;1.40;82.87;98031.94;1713243;83;21376;-80
2021/03/05 06:42:53;;;;;;;;;;;;;;;1.36;83.03;98037.81;1713648;83;20578;-80
2021/03/05 06:45:23;;;;;;;;;;;;;;;1.38;82.93;98045.23;1713511;83;20116;-80
2021/03/05 06:48:01;;;;;;;;;;;;;;;1.39;83.00;98043.47;1713673;83;20863;-78
2021/03/05 06:50:32;;;;;;;;;;;;;;;1.39;83.02;98046.96;1713605;83;20121;-80
2021/03/05 06:53:20;;;;;;;;;;;;;;;1.38;83.04;98037.28;1713751;83;21415;-81
2021/03/05 06:55:48;;;;;;;;;;;;;;;1.37;83.08;98041.31;1713641;83;20183;-80
2021/03/05 06:58:23;;;;;;;;;;;;;;;1.39;83.12;98046.11;1713904;83;20156;-80
2021/03/05 07:01:02;;;;;;;;;;;;;;;1.41;83.08;98041.61;1713788;83;20153;-79
2021/03/05 07:03:36;;;;;;;;;;;;;;;1.41;82.75;98031.88;1713777;83;20168;-77
2021/03/05 07:06:04;;;;;;;;;;;;;;;1.42;82.68;98038.91;1713767;83;22549;-72
2021/03/05 07:08:38;;;;;;;;;;;;;;;1.44;82.76;98036.20;1713566;83;20136;-71
2021/03/05 07:11:13;;;;;;;;;;;;;;;1.43;82.84;98034.03;1713736;83;20168;-72
2021/03/05 07:13:50;;;;;;;;;;;;;;;1.44;82.59;98037.06;1713570;83;20412;-72
2021/03/05 07:16:20;;;;;;;;;;;;;;;1.43;82.33;98043.73;1713761;83;20124;-72
2021/03/05 07:18:50;;;;;;;;;;;;;;;1.40;82.29;98038.11;1713381;83;21478;-70
2021/03/05 07:21:20;;;;;;;;;;;;;;;1.40;82.27;98049.14;1713572;83;20498;-68
2021/03/05 07:23:48;;;;;;;;;;;;;;;1.36;82.28;98049.72;1713462;83;20184;-75
2021/03/05 07:26:17;;;;;;;;;;;;;;;1.35;82.30;98045.81;1713578;83;20725;-75
2021/03/05 07:28:46;;;;;;;;;;;;;;;1.33;82.29;98045.88;1693268;83;20164;-72
2021/03/05 07:31:17;;;;;;;;;;;;;;;1.33;82.36;98045.88;1713619;82;21368;-74
2021/03/05 07:33:50;;;;;;;;;;;;;;;1.32;82.21;98052.07;1693129;83;20168;-76
2021/03/05 07:36:22;;;;;;;;;;;;;;;1.31;82.02;98051.69;1713827;83;20141;-74
2021/03/05 07:38:59;;;;;;;;;;;;;;;1.30;81.81;98057.89;1713468;83;20136;-74
2021/03/05 07:41:34;;;;;;;;;;;;;;;1.30;81.90;98057.04;1713527;83;20128;-77
2021/03/05 07:44:06;;;;;;;;;;;;;;;1.28;81.95;98053.12;1713671;83;21201;-75
2021/03/05 09:33:35;;;;;;;27.75;19.12;;;;;;;0.52;86.22;98127.17;1775478;79;28159;-69
2021/03/05 09:39:04;;;;;;;28.15;20.50;;;;;;;0.55;86.15;98130.16;1749337;82;21219;-80
2021/03/05 09:41:43;;;;;;;26.93;20.05;;;;;;;0.59;86.22;98120.36;1749752;81;21016;-83
2021/03/05 09:44:15;;;;;;;27.50;20.95;;;;;;;0.64;86.22;98137.78;1722909;82;21039;-76
2021/03/05 09:46:44;;;;;;;21.97;18.87;;;;;;;0.69;86.28;98134.55;1750040;81;21437;-79
2021/03/05 09:49:52;;;;;;;;;;;;;;;;;;;;;
2021/03/05 09:53:07;;;;;;;19.98;16.60;;;;;;;0.82;85.79;98143.36;1746410;82;20977;-84
2021/03/05 09:57:00;;;;;;;;;;;;;;;;;;;;;
2021/03/05 10:12:08;;;;;;;16.30;14.58;;;;;;;1.24;84.57;98144.95;1778848;80;28404;-85
2021/03/05 10:14:44;;;;;;;20.10;15.55;;;;;;;1.25;84.33;98157.75;1754834;81;21420;-85
2021/03/05 10:17:14;;;;;;;19.27;17.27;;;;;;;1.31;84.12;98159.30;1736403;82;21218;-85
2021/03/05 10:19:44;;;;;;;21.57;17.15;;;;;;;1.36;83.85;98155.58;1789352;80;21447;-86
2021/03/05 10:22:15;;;;;;;15.70;14.00;;;;;;;1.42;83.63;98159.33;1789510;80;21002;-86
2021/03/05 10:24:47;;;;;;;15.98;14.28;;;;;;;1.49;83.55;98171.02;1789343;80;20880;-85
2021/03/05 10:27:21;;;;;;;17.32;14.07;;;;;;;1.53;83.24;98164.67;1731857;80;21014;-85
2021/03/05 10:29:59;;;;;;;16.85;15.10;;;;;;;1.58;83.07;98174.66;1789399;80;21359;-85
2021/03/05 10:32:38;;;;;;;16.27;13.20;;;;;;;1.64;82.99;98169.14;1761111;80;20958;-84
2021/03/05 10:35:13;;;;;;;16.80;14.07;;;;;;;1.71;82.87;98168.44;1789679;80;20931;-84
2021/03/05 10:37:43;;;;;;;14.03;12.47;;;;;;;1.77;82.69;98161.59;1789407;80;21030;-83
2021/03/05 10:40:16;;;;;;;14.65;13.10;;;;;;;1.83;82.31;98155.19;1789418;80;21034;-83
2021/03/05 10:42:45;;;;;;;16.80;14.95;;;;;;;1.89;81.94;98160.25;1789743;80;21319;-73
2021/03/05 10:45:17;;;;;;;13.08;11.78;;;;;;;1.92;81.62;98161.46;1789099;80;21447;-81
2021/03/05 10:47:47;;;;;;;16.55;14.18;;;;;;;1.97;81.62;98170.09;1786544;79;20920;-85
2021/03/05 10:50:18;;;;;;;15.30;12.40;;;;;;;2.03;81.40;98164.56;1789337;80;20927;-86
2021/03/05 10:52:48;;;;;;;12.05;10.08;;;;;;;2.09;81.35;98174.92;1789740;80;20876;-87
2021/03/05 10:55:18;;;;;;;12.80;10.75;;;;;;;2.13;80.76;98172.56;1791494;80;21364;-83
2021/03/05 10:57:49;;;;;;;12.55;10.28;;;;;;;2.17;80.47;98178.59;1792911;80;20935;-84
2021/03/05 11:00:19;;;;;;;11.60;10.40;;;;;;;2.20;80.24;98172.33;1789816;79;20927;-85
2021/03/05 11:02:52;;;;;;;11.40;10.20;;;;;;;2.22;80.13;98173.13;1789349;80;21065;-87
2021/03/05 11:05:19;;;;;;;11.75;10.53;;;;;;;2.27;80.08;98173.80;1789490;80;21344;-83
2021/03/05 11:07:48;;;;;;;10.88;9.53;;;;;;;2.31;79.93;98176.74;1759315;80;21151;-86
2021/03/05 11:10:17;;;;;;;10.53;8.98;;;;;;;2.35;79.86;98181.01;1787543;79;20943;-87
2021/03/05 11:12:46;;;;;;;9.90;8.80;;;;;;;2.38;79.79;98180.89;1781818;80;20986;-85
2021/03/05 11:15:16;;;;;;;9.60;8.58;;;;;;;2.44;79.52;98180.61;1781923;80;20994;-85
2021/03/05 11:17:47;;;;;;;10.60;8.88;;;;;;;2.49;79.39;98170.72;1781929;80;21329;-84
2021/03/05 11:20:16;;;;;;;9.60;8.60;;;;;;;2.55;79.27;98166.93;1781829;80;21479;-83
2021/03/05 11:22:53;;;;;;;10.28;9.18;;;;;;;2.59;79.12;98167.69;1781399;80;20998;-84
2021/03/05 11:25:17;;;;;;;12.68;10.43;;;;;;;2.63;79.03;98169.27;1779788;80;21018;-85
2021/03/05 11:27:48;;;;;;;11.88;10.68;;;;;;;2.67;79.07;98174.87;1754671;80;20884;-86
2021/03/05 11:30:33;;;;;;;13.53;11.35;;;;;;;2.74;78.82;98175.47;1781442;80;20939;-85
2021/03/05 11:33:34;;;;;;;12.10;10.82;;;;;;;2.82;78.30;98170.26;1855197;76;24548;-85
2021/03/05 11:37:27;;;;;;;12.78;11.50;;;;;;;2.82;77.50;98172.03;1816924;77;23179;-85
2021/03/05 11:44:06;;;;;;;15.55;14.05;;;;;;;2.74;77.77;98165.71;1811823;78;27553;-85
2021/03/05 11:46:39;;;;;;;16.05;14.43;;;;;;;2.69;77.70;98176.98;1801665;79;21010;-86
2021/03/05 11:49:26;;;;;;;;;;;;;;;;;;;;;
2021/03/05 11:52:15;;;;;;;15.53;13.80;;;;;;;2.66;78.17;98174.45;1787502;79;21042;-87
2021/03/05 11:54:50;;;;;;;15.80;14.10;;;;;;;2.64;77.75;98174.52;1802477;79;20982;-81
2021/03/05 11:57:22;;;;;;;18.87;16.20;;;;;;;2.56;77.37;98177.95;1801794;79;20951;-85
2021/03/05 12:00:08;;;;;;;17.45;15.68;;;;;;;2.49;77.57;98173.36;1803740;79;21077;-82
2021/03/05 12:02:37;;;;;;;15.75;14.15;;;;;;;2.44;78.11;98176.64;1802408;79;21253;-85
2021/03/05 12:05:08;;;;;;;15.20;13.70;;;;;;;2.37;78.40;98167.22;1800385;79;21483;-86
2021/03/05 12:07:37;;;;;;;16.67;14.15;;;;;;;2.35;78.61;98179.69;1800282;79;21061;-84
2021/03/05 12:10:06;;;;;;;14.68;13.03;;;;;;;2.32;78.79;98178.48;1800469;79;21038;-86
2021/03/05 12:12:36;;;;;;;13.20;11.90;;;;;;;2.29;78.86;98175.95;1800367;79;20951;-87
2021/03/05 12:15:06;;;;;;;13.00;11.57;;;;;;;2.28;79.06;98176.86;1801750;79;21245;-83
2021/03/05 12:17:39;;;;;;;14.30;12.80;;;;;;;2.25;79.08;98177.83;1802181;79;20915;-88
2021/03/05 12:20:20;;;;;;;16.65;13.68;;;;;;;2.26;79.04;98191.97;1801044;79;20927;-89
2021/03/05 12:23:11;;;;;;;74.15;35.50;;;;;;;2.22;79.24;98189.88;1793158;79;20990;-85
2021/03/05 12:25:58;;;;;;;72.22;34.58;;;;;;;2.21;79.43;98193.47;1795241;78;20991;-85
2021/03/05 12:28:25;;;;;;;28.38;19.87;;;;;;;2.20;79.42;98190.41;1800993;79;21203;-84
2021/03/05 12:30:53;;;;;;;37.58;24.30;;;;;;;2.22;79.45;98193.00;1800281;79;20943;-86
2021/03/05 12:33:21;;;;;;;29.90;20.72;;;;;;;2.21;79.26;98199.20;1800550;79;20926;-86
2021/03/05 12:35:56;;;;;;;64.22;40.50;;;;;;;2.19;79.24;98193.12;1800426;79;20931;-85
2021/03/05 12:38:25;;;;;;;27.67;22.30;;;;;;;2.17;79.55;98200.66;1801169;79;20927;-85
2021/03/05 12:40:54;;;;;;;22.67;20.17;;;;;;;2.18;79.56;98205.52;1801263;79;21313;-85
2021/03/05 12:43:22;;;;;;;17.55;15.80;;;;;;;2.22;79.59;98211.55;1785150;79;20903;-85
2021/03/05 12:46:05;;;;;;;18.17;15.25;;;;;;;2.24;79.50;98217.64;1800528;79;20927;-87
2021/03/05 12:48:39;;;;;;;17.35;15.58;;;;;;;2.24;79.45;98217.64;1800530;79;21030;-85
2021/03/05 12:51:15;;;;;;;16.52;14.98;;;;;;;2.22;79.04;98232.75;1800368;79;21002;-89
2021/03/05 12:53:58;;;;;;;15.45;13.78;;;;;;;2.20;79.08;98234.13;1799909;79;22324;-89
2021/03/05 12:56:35;;;;;;;13.32;11.48;;;;;;;2.16;79.37;98238.69;1785545;79;20986;-86
2021/03/05 12:59:33;;;;;;;12.75;11.40;;;;;;;2.13;79.54;98236.16;1800649;79;21066;-85
2021/03/05 13:02:04;;;;;;;41.60;21.95;;;;;;;2.08;79.62;98233.27;1801311;79;20935;-84
2021/03/05 13:04:43;;;;;;;7.42;6.72;;;;;;;2.05;79.70;98247.52;1767690;79;20927;-83
2021/03/05 13:07:42;;;;;;;4.35;3.90;;;;;;;1.92;78.99;98248.87;1780641;78;27532;-84
2021/03/05 13:11:05;;;;;;;;;;;;;;;;;;;;;
2021/03/05 13:14:21;;;;;;;3.67;2.85;;;;;;;1.57;79.57;98264.25;1910256;74;28617;-85
2021/03/05 13:18:28;;;;;;;;;;;;;;;;;;;;;
2021/03/05 13:21:17;;;;;;;3.52;3.15;;;;;;;1.16;80.34;98275.33;1629259;87;21870;-85
2021/03/05 13:24:44;;;;;;;2.42;2.22;;;;;;;1.03;81.12;98288.09;1645622;86;21493;-86
2021/03/05 13:31:41;;;;;;;2.75;2.33;;;;;;;0.86;82.65;98285.98;1576026;89;21020;-86
2021/03/05 13:45:45;;;;;;;2.70;2.15;;;;;;;0.54;83.87;98312.12;1826074;78;28616;-84
2021/03/05 13:48:22;;;;;;;1.37;1.20;;;;;;;0.49;84.04;98316.66;1728882;83;20971;-85
2021/03/05 13:51:48;;;;;;;1.35;1.20;;;;;;;0.46;84.00;98316.78;1821010;77;27918;-84
2021/03/05 13:54:46;;;;;;;1.35;1.22;;;;;;;0.42;84.11;98325.70;1708021;83;21065;-86
2021/03/05 14:01:38;;;;;;;1.55;1.30;;;;;;;0.33;83.47;98345.31;1687984;85;21148;-84
2021/03/05 14:18:28;;;;;;;2.60;2.33;;;;;;;0.20;85.00;98367.26;1766038;78;21523;-85
2021/03/05 14:21:28;;;;;;;2.17;1.98;;;;;;;0.19;85.19;98366.87;1729890;80;21538;-86
2021/03/05 14:24:28;;;;;;;2.30;1.70;;;;;;;0.20;85.46;98375.18;1731214;80;20959;-86
2021/03/05 14:46:37;;;;;;;1.40;1.30;;;;;;;0.15;85.30;98389.84;1709249;77;21059;-85
2021/03/05 14:50:17;;;;;;;47.95;30.35;;;;;;;0.25;85.37;98394.41;1824642;77;28519;-85
2021/03/05 15:04:07;;;;;;;3.37;2.10;;;;;;;0.16;84.21;98422.42;1845621;77;28215;-84
2021/03/05 15:07:02;;;;;;;2.75;2.05;;;;;;;0.12;84.41;98420.75;1791974;80;20940;-84
2021/03/05 15:09:33;;;;;;;2.72;2.50;;;;;;;0.14;84.70;98425.53;1788096;80;21337;-85
2021/03/05 15:12:09;;;;;;;3.85;2.87;;;;;;;0.15;84.55;98435.20;1823743;77;21314;-83
2021/03/05 15:14:37;;;;;;;3.25;2.60;;;;;;;0.16;84.28;98434.30;1792202;80;21326;-83
2021/03/05 15:17:07;;;;;;;3.55;2.67;;;;;;;0.19;84.26;98447.43;1792000;80;20954;-86
2021/03/05 15:19:35;;;;;;;3.33;3.02;;;;;;;0.18;83.78;98458.89;1791997;80;20927;-83
2021/03/05 15:22:04;;;;;;;5.55;4.00;;;;;;;0.19;83.49;98460.64;1791745;78;22277;-85
2021/03/05 15:24:34;;;;;;;4.28;3.08;;;;;;;0.21;83.30;98464.09;1791514;80;21006;-83
2021/03/05 15:27:02;;;;;;;4.35;3.10;;;;;;;0.21;83.15;98464.09;1791575;80;21447;-87
2021/03/05 15:29:32;;;;;;;4.40;3.62;;;;;;;0.19;82.60;98476.48;1791389;80;21054;-86
2021/03/05 15:32:01;;;;;;;5.60;2.62;;;;;;;0.19;82.48;98481.77;1791509;78;21051;-84
2021/03/05 15:34:29;;;;;;;3.37;2.52;;;;;;;0.21;82.43;98491.84;1791595;80;21370;-88
2021/03/05 15:36:57;;;;;;;2.62;2.37;;;;;;;0.19;82.36;98487.05;1791482;80;20947;-83
2021/03/05 15:39:26;;;;;;;5.15;3.05;;;;;;;0.17;82.35;98491.05;1791497;80;20943;-85
2021/03/05 15:41:54;;;;;;;5.45;3.27;;;;;;;0.15;82.27;98494.17;1791275;80;21213;-84
2021/03/05 15:44:24;;;;;;;4.03;2.92;;;;;;;0.14;82.20;98496.85;1791616;80;21469;-87
2021/03/05 15:46:57;;;;;;;2.92;2.62;;;;;;;0.14;82.20;98506.09;1791833;80;22133;-84
2021/03/05 15:49:27;;;;;;;3.20;2.77;;;;;;;0.12;82.09;98503.95;1791672;80;21365;-83
2021/03/05 15:51:56;;;;;;;3.92;2.42;;;;;;;0.10;81.88;98509.27;1791626;80;20943;-82
2021/03/05 15:54:23;;;;;;;5.58;2.30;;;;;;;0.09;81.72;98518.09;1791716;80;21006;-83
2021/03/05 15:56:53;;;;;;;3.40;2.33;;;;;;;0.07;81.55;98517.73;1791753;80;20999;-84
2021/03/05 15:59:22;;;;;;;3.95;2.45;;;;;;;0.03;81.47;98522.67;1791752;80;21379;-84
2021/03/05 16:01:50;;;;;;;3.08;2.33;;;;;;;0.02;81.63;98527.09;1791537;80;21058;-83
2021/03/05 16:04:23;;;;;;;5.35;2.87;;;;;;;0.01;81.84;98527.98;1780298;80;21365;-85
2021/03/05 16:06:53;;;;;;;3.87;2.80;;;;;;;-0.01;81.91;98539.91;1780383;80;20980;-83
2021/03/05 16:09:21;;;;;;;3.25;2.58;;;;;;;-0.03;81.90;98544.83;1780643;80;21392;-84
2021/03/05 16:11:48;;;;;;;2.90;2.20;;;;;;;-0.03;81.89;98549.66;1780225;80;21190;-84
2021/03/05 16:14:19;;;;;;;4.47;2.60;;;;;;;-0.05;82.05;98550.16;1780046;80;21082;-82